Station: ELLX - 25/07/2017 16:20Z (il y a 16 minutes)
ELLX 251620Z 30012KT 9999 FEW029 18/11 Q1011 NOSIG
Vent du 300º - 12 kt
Visibilité > 10 km
Nuages épars à 2900 pieds
Température: +18ºC - Point de rosée: +11ºC - QNH: 1011 hPa
Pas de changement significatif prévu dans les 2 heures qui suivent l'observation